CheckWX is a tool to help pilots better visualize weather data.  It is not intended as a substitute for an official pre-flight weather briefing.

15:29:11 UTC

KRDG TAF
Reading Regional / Carl A Spaatz Field Airport
Reading, Pennsylvania, USA
KRDG 171133Z 1712/1812 27017G27KT P6SM BKN040 FM171300 27018G34KT P6SM BKN035 FM171500 28019G38KT P6SM BKN035 FM172300 28016G30KT P6SM BKN045 FM180200 29014G22KT P6SM BKN035 FM181100 31009KT P6SM SCT030

Oct-17@
12:00 UTC

Oct-17 @ 12:00 UTC

Oct-17@
13:00 UTC

Oct-17 @ 13:00 UTC

KRDG 171133Z 1712/1812 27017G27KT P6SM BKN040

Expired

Wind
  • 270° at 17 KTS
  • {Gusting to 27 KTS
Cloud Levels
  • Broken at 4,000' AGL

Oct-17@
13:00 UTC

Oct-17 @ 13:00 UTC

Oct-17@
15:00 UTC

Oct-17 @ 15:00 UTC

FM171300 27018G34KT P6SM BKN035

Expired

Wind
  • 270° at 18 KTS
  • {Gusting to 34 KTS
Cloud Levels
  • Broken at 3,500' AGL

Oct-17@
15:00 UTC

Oct-17 @ 15:00 UTC

Oct-17@
23:00 UTC

Oct-17 @ 23:00 UTC

FM171500 28019G38KT P6SM BKN035

From

From Standard forecast or significant change

Wind
  • 280° at 19 KTS
  • {Gusting to 38 KTS
Cloud Levels
  • Broken at 3,500' AGL

Oct-17@
23:00 UTC

Oct-17 @ 23:00 UTC

Oct-18@
02:00 UTC

Oct-18 @ 02:00 UTC

FM172300 28016G30KT P6SM BKN045

From

From Standard forecast or significant change

Wind
  • 280° at 16 KTS
  • {Gusting to 30 KTS
Cloud Levels
  • Broken at 4,500' AGL

Oct-18@
02:00 UTC

Oct-18 @ 02:00 UTC

Oct-18@
11:00 UTC

Oct-18 @ 11:00 UTC

FM180200 29014G22KT P6SM BKN035

From

From Standard forecast or significant change

Wind
  • 290° at 14 KTS
  • {Gusting to 22 KTS
Cloud Levels
  • Broken at 3,500' AGL

Oct-18@
11:00 UTC

Oct-18 @ 11:00 UTC

Oct-18@
12:00 UTC

Oct-18 @ 12:00 UTC

FM181100 31009KT P6SM SCT030

From

From Standard forecast or significant change

Wind
  • 310° at 9 KTS
Cloud Levels
  • Scattered at 3,000' AGL